Terminal Aerodrome Forecast
Issued by NWS

Home | Current Version | Previous Version | Text Only | Print | Product List | Glossary On
Versions: 1 2 3 4 5 6 7 8 9 10 11 12 13 14 15 16
000
FTUS45 KABQ 070500
TAFFMN
TAF
KFMN 070540Z 0706/0806 10008KT P6SM FEW070 BKN110
     FM070900 10007KT P6SM SCT035 SCT120
     FM071900 20010G17KT P6SM SCT080 SCT120
     FM080200 VRB06KT P6SM SCT080 BKN110=

USA.gov is the U.S. government's official web portal to all federal, state and local government web resources and services.